Time;durP1;ratioP1;P1;durP2;ratioP2;P2;SDS_P1;SDS_P2;PMS_P1;PMS_P2;Temp;Humidity;BMP_temperature;BMP_pressure;BME280_temperature;BME280_humidity;BME280_pressure;Samples;Min_cycle;Max_cycle;Signal;HPM_P1;HPM_P2
2023/11/05 00:01:23;;;;;;;;;;;22.20;66.60;;;;;;5000916;28;1973;-67
2023/11/05 00:03:52;;;;;;;;;;;22.20;66.70;;;;;;5005120;28;1464;-67
2023/11/05 00:06:17;;;;;;;;;;;22.20;66.70;;;;;;4997779;28;1254;-67
2023/11/05 00:08:43;;;;;;;;;;;22.30;66.80;;;;;;5000801;28;1174;-67
2023/11/05 00:11:08;;;;;;;;;;;22.30;66.80;;;;;;5000224;28;1375;-67
2023/11/05 00:13:34;;;;;;;;;;;22.20;66.80;;;;;;5000648;28;1355;-67
2023/11/05 00:15:59;;;;;;;;;;;22.30;66.90;;;;;;4999464;28;1337;-67
2023/11/05 00:18:25;;;;;;;;;;;22.30;67.00;;;;;;5001484;28;1491;-67
2023/11/05 00:20:51;;;;;;;;;;;22.30;67.00;;;;;;5001771;28;1598;-67
2023/11/05 00:23:16;;;;;;;;;;;22.30;67.00;;;;;;4999620;28;1912;-67
2023/11/05 00:25:42;;;;;;;;;;;22.30;67.10;;;;;;4999986;28;1444;-67
2023/11/05 00:28:07;;;;;;;;;;;22.30;67.10;;;;;;5000457;28;1487;-67
2023/11/05 00:30:33;;;;;;;;;;;22.30;67.10;;;;;;5003102;28;1455;-67
2023/11/05 00:32:58;;;;;;;;;;;22.30;67.20;;;;;;4998954;28;1551;-68
2023/11/05 00:35:24;;;;;;;;;;;22.30;67.20;;;;;;5002847;28;1454;-67
2023/11/05 00:37:49;;;;;;;;;;;22.30;67.30;;;;;;5003724;28;1438;-67
2023/11/05 00:40:15;;;;;;;;;;;22.30;67.30;;;;;;5001063;28;1359;-67
2023/11/05 00:42:40;;;;;;;;;;;22.30;67.30;;;;;;5001855;28;1914;-67
2023/11/05 00:45:07;;;;;;;;;;;22.30;67.30;;;;;;5002739;28;1436;-67
2023/11/05 00:47:33;;;;;;;;;;;22.30;67.30;;;;;;5002713;28;1364;-67
2023/11/05 00:49:59;;;;;;;;;;;22.30;67.40;;;;;;5001787;28;1319;-67
2023/11/05 00:52:24;;;;;;;;;;;22.30;67.40;;;;;;4999688;28;1397;-67
2023/11/05 00:54:50;;;;;;;;;;;22.30;67.40;;;;;;4998021;28;1358;-67
2023/11/05 00:57:15;;;;;;;;;;;22.30;67.40;;;;;;5003607;28;1317;-67
2023/11/05 00:59:41;;;;;;;;;;;22.40;67.50;;;;;;4998531;28;1402;-67
2023/11/05 01:02:07;;;;;;;;;;;22.30;67.50;;;;;;5000406;28;1970;-67
2023/11/05 01:04:32;;;;;;;;;;;22.30;67.50;;;;;;5002997;28;1444;-67
2023/11/05 01:06:57;;;;;;;;;;;22.30;67.50;;;;;;5001945;28;1301;-67
2023/11/05 01:09:23;;;;;;;;;;;22.40;67.60;;;;;;5000181;28;1421;-67
2023/11/05 01:11:48;;;;;;;;;;;22.30;67.50;;;;;;5000520;28;1394;-67
2023/11/05 01:14:14;;;;;;;;;;;22.40;67.60;;;;;;5002881;28;1272;-67
2023/11/05 01:16:40;;;;;;;;;;;22.40;67.60;;;;;;5002847;28;1294;-67
2023/11/05 01:19:05;;;;;;;;;;;22.40;67.70;;;;;;5020627;28;1520;-67
2023/11/05 01:21:31;;;;;;;;;;;22.40;67.70;;;;;;5007067;28;1913;-67
2023/11/05 01:23:56;;;;;;;;;;;22.40;67.70;;;;;;5006681;28;1654;-67
2023/11/05 01:26:22;;;;;;;;;;;22.40;67.70;;;;;;5005298;28;1451;-67
2023/11/05 01:28:47;;;;;;;;;;;22.40;67.70;;;;;;5005498;28;1456;-67
2023/11/05 01:31:13;;;;;;;;;;;22.40;67.70;;;;;;5004893;28;1581;-67
2023/11/05 01:33:38;;;;;;;;;;;22.40;67.80;;;;;;5003871;28;1424;-67
2023/11/05 01:36:04;;;;;;;;;;;22.40;67.80;;;;;;5005665;28;1297;-67
2023/11/05 01:38:30;;;;;;;;;;;22.40;67.70;;;;;;5007050;28;1383;-67
2023/11/05 01:40:55;;;;;;;;;;;22.40;67.80;;;;;;5006350;28;1700;-67
2023/11/05 01:43:21;;;;;;;;;;;22.40;67.80;;;;;;5002814;28;1961;-67
2023/11/05 01:45:47;;;;;;;;;;;22.40;67.80;;;;;;4989964;28;1442;-67
2023/11/05 01:48:13;;;;;;;;;;;22.40;67.60;;;;;;5005233;28;1453;-68
2023/11/05 01:50:38;;;;;;;;;;;22.40;66.10;;;;;;5003346;28;1506;-67
2023/11/05 01:53:03;;;;;;;;;;;22.40;65.90;;;;;;5000395;28;1292;-67
2023/11/05 01:55:29;;;;;;;;;;;22.30;66.10;;;;;;5000365;28;1452;-68
2023/11/05 01:57:54;;;;;;;;;;;22.30;66.30;;;;;;5004091;28;1437;-67
2023/11/05 02:00:21;;;;;;;;;;;22.20;66.40;;;;;;5003916;28;1415;-67
2023/11/05 02:02:47;;;;;;;;;;;22.20;66.50;;;;;;5003136;28;1906;-67
2023/11/05 02:05:12;;;;;;;;;;;22.20;66.60;;;;;;5007667;28;2043;-67
2023/11/05 02:07:38;;;;;;;;;;;22.10;66.70;;;;;;5003952;28;1569;-68
2023/11/05 02:10:04;;;;;;;;;;;22.10;66.80;;;;;;5002533;28;1109;-67
2023/11/05 02:12:29;;;;;;;;;;;22.10;66.90;;;;;;4999952;28;1356;-67
2023/11/05 02:14:56;;;;;;;;;;;22.00;66.90;;;;;;5004367;28;927;-67
2023/11/05 02:17:21;;;;;;;;;;;22.00;67.00;;;;;;5002946;28;1223;-67
2023/11/05 02:19:47;;;;;;;;;;;21.90;67.00;;;;;;5007006;28;1173;-67
2023/11/05 02:22:14;;;;;;;;;;;21.90;67.10;;;;;;5005655;28;1906;-67
2023/11/05 02:24:44;;;;;;;;;;;21.90;67.30;;;;;;5001446;28;1627;-68
2023/11/05 02:27:09;;;;;;;;;;;21.80;67.20;;;;;;4998475;28;1854;-67
2023/11/05 02:29:35;;;;;;;;;;;21.80;67.30;;;;;;5006655;28;1153;-67
2023/11/05 02:32:00;;;;;;;;;;;21.80;67.40;;;;;;5003663;28;1343;-67
2023/11/05 02:34:26;;;;;;;;;;;21.80;67.50;;;;;;5003514;28;1387;-67
2023/11/05 02:36:51;;;;;;;;;;;21.70;67.50;;;;;;5001393;28;1331;-68
2023/11/05 02:39:17;;;;;;;;;;;21.70;67.50;;;;;;5002995;28;1518;-67
2023/11/05 02:41:42;;;;;;;;;;;21.70;67.60;;;;;;5002392;28;1961;-67
2023/11/05 02:44:08;;;;;;;;;;;21.60;67.60;;;;;;5001785;28;1245;-67
2023/11/05 02:46:33;;;;;;;;;;;21.60;67.70;;;;;;5003378;28;1226;-67
2023/11/05 02:48:58;;;;;;;;;;;21.60;67.70;;;;;;5004348;28;1387;-67
2023/11/05 02:51:24;;;;;;;;;;;21.60;67.80;;;;;;5002138;28;1395;-67
2023/11/05 02:53:49;;;;;;;;;;;21.60;67.80;;;;;;5004471;28;1277;-67
2023/11/05 02:56:15;;;;;;;;;;;21.60;67.90;;;;;;5001384;28;1313;-67
2023/11/05 02:58:41;;;;;;;;;;;21.50;67.90;;;;;;5002632;28;1332;-67
2023/11/05 03:01:07;;;;;;;;;;;21.50;67.90;;;;;;5001531;28;1383;-67
2023/11/05 03:03:32;;;;;;;;;;;21.50;68.00;;;;;;5001357;28;1902;-67
2023/11/05 03:05:58;;;;;;;;;;;21.50;68.00;;;;;;5001636;28;1355;-67
2023/11/05 03:08:23;;;;;;;;;;;21.50;68.00;;;;;;5002392;28;1244;-67
2023/11/05 03:10:48;;;;;;;;;;;21.50;68.10;;;;;;5002968;28;1634;-67
2023/11/05 03:13:14;;;;;;;;;;;21.50;68.10;;;;;;5003807;28;1409;-67
2023/11/05 03:15:39;;;;;;;;;;;21.40;68.20;;;;;;5002082;28;1331;-67
2023/11/05 03:18:05;;;;;;;;;;;21.40;68.20;;;;;;5001535;28;928;-67
2023/11/05 03:20:30;;;;;;;;;;;21.40;68.20;;;;;;5000168;28;1362;-67
2023/11/05 03:22:56;;;;;;;;;;;21.40;68.20;;;;;;5002909;28;1918;-68
2023/11/05 03:25:22;;;;;;;;;;;21.40;68.20;;;;;;5001026;28;1525;-67
2023/11/05 03:27:47;;;;;;;;;;;21.40;68.30;;;;;;4996466;28;1506;-68
2023/11/05 03:30:13;;;;;;;;;;;21.40;69.00;;;;;;5001524;28;1410;-68
2023/11/05 03:32:38;;;;;;;;;;;21.40;68.40;;;;;;5001862;28;1435;-67
2023/11/05 03:35:05;;;;;;;;;;;21.30;68.30;;;;;;5001262;28;1391;-67
2023/11/05 03:37:31;;;;;;;;;;;21.30;68.30;;;;;;5001980;28;1672;-67
2023/11/05 03:39:56;;;;;;;;;;;21.30;68.30;;;;;;5002370;28;1367;-67
2023/11/05 03:42:22;;;;;;;;;;;21.30;68.40;;;;;;5000870;28;1903;-67
2023/11/05 03:44:47;;;;;;;;;;;21.30;68.40;;;;;;5004022;28;1332;-67
2023/11/05 03:47:13;;;;;;;;;;;21.30;68.50;;;;;;5001039;28;1483;-68
2023/11/05 03:49:38;;;;;;;;;;;21.30;68.50;;;;;;5000215;28;1361;-68
2023/11/05 03:52:04;;;;;;;;;;;21.30;68.60;;;;;;5002173;28;1328;-68
2023/11/05 03:54:29;;;;;;;;;;;21.30;68.60;;;;;;5019636;28;1408;-68
2023/11/05 03:56:56;;;;;;;;;;;21.30;68.60;;;;;;5001055;28;1329;-68
2023/11/05 03:59:22;;;;;;;;;;;21.20;68.50;;;;;;5003937;28;1481;-67
2023/11/05 04:01:51;;;;;;;;;;;21.30;68.60;;;;;;5001752;28;1981;-68
2023/11/05 04:04:16;;;;;;;;;;;21.20;68.60;;;;;;5002518;28;1353;-67
2023/11/05 04:06:42;;;;;;;;;;;21.20;68.60;;;;;;5003083;28;1474;-68
2023/11/05 04:09:07;;;;;;;;;;;21.20;68.70;;;;;;5002662;28;1429;-67
2023/11/05 04:11:34;;;;;;;;;;;21.20;68.70;;;;;;5003562;28;1420;-67
2023/11/05 04:14:00;;;;;;;;;;;21.20;68.70;;;;;;5001391;28;1270;-67
2023/11/05 04:16:25;;;;;;;;;;;21.20;68.70;;;;;;5000282;28;1402;-65
2023/11/05 04:18:50;;;;;;;;;;;21.20;68.70;;;;;;5002185;28;1443;-66
2023/11/05 04:21:16;;;;;;;;;;;21.20;68.80;;;;;;5000448;28;1445;-66
2023/11/05 04:23:41;;;;;;;;;;;21.20;68.80;;;;;;5002226;28;1899;-67
2023/11/05 04:26:09;;;;;;;;;;;21.20;68.80;;;;;;5000637;28;1300;-67
2023/11/05 04:28:34;;;;;;;;;;;21.20;68.80;;;;;;5002193;28;1427;-67
2023/11/05 04:31:00;;;;;;;;;;;21.10;68.80;;;;;;5003637;28;1386;-67
2023/11/05 04:33:25;;;;;;;;;;;21.10;68.90;;;;;;5002755;28;936;-67
2023/11/05 04:35:51;;;;;;;;;;;21.10;68.90;;;;;;5002639;28;1450;-67
2023/11/05 04:38:16;;;;;;;;;;;21.10;68.90;;;;;;4998860;28;1346;-67
2023/11/05 04:40:42;;;;;;;;;;;21.10;68.90;;;;;;5006673;28;1387;-67
2023/11/05 04:43:08;;;;;;;;;;;21.10;68.90;;;;;;5001509;28;1922;-67
2023/11/05 04:45:34;;;;;;;;;;;21.10;68.90;;;;;;5003540;28;1551;-67
2023/11/05 04:48:02;;;;;;;;;;;21.10;69.00;;;;;;5002683;28;1328;-67
2023/11/05 04:50:28;;;;;;;;;;;21.10;69.00;;;;;;5005671;28;1311;-66
2023/11/05 04:52:53;;;;;;;;;;;21.10;69.00;;;;;;5006455;28;1376;-65
2023/11/05 04:55:20;;;;;;;;;;;21.10;69.00;;;;;;5003004;28;1359;-66
2023/11/05 04:57:45;;;;;;;;;;;21.10;69.10;;;;;;5002619;28;1342;-66
2023/11/05 05:00:12;;;;;;;;;;;21.10;69.00;;;;;;5004039;28;930;-65
2023/11/05 05:02:37;;;;;;;;;;;21.10;69.10;;;;;;5002360;28;1902;-66
2023/11/05 05:05:03;;;;;;;;;;;21.00;69.00;;;;;;5001819;28;982;-66
2023/11/05 05:07:29;;;;;;;;;;;21.10;69.10;;;;;;5007664;28;922;-66
2023/11/05 05:09:54;;;;;;;;;;;21.00;69.00;;;;;;5006652;28;1327;-65
2023/11/05 05:12:21;;;;;;;;;;;21.00;69.00;;;;;;5007169;28;1269;-66
2023/11/05 05:14:48;;;;;;;;;;;21.00;69.10;;;;;;5021470;28;1040;-65
2023/11/05 05:17:15;;;;;;;;;;;21.10;69.20;;;;;;5004256;28;1291;-66
2023/11/05 05:19:45;;;;;;;;;;;21.00;69.10;;;;;;5006324;28;1248;-67
2023/11/05 05:22:10;;;;;;;;;;;21.00;69.10;;;;;;5004279;28;1966;-67
2023/11/05 05:24:36;;;;;;;;;;;21.00;69.20;;;;;;5005160;28;1364;-67
2023/11/05 05:27:01;;;;;;;;;;;21.00;69.10;;;;;;5004080;28;1772;-69
2023/11/05 05:29:27;;;;;;;;;;;21.00;69.20;;;;;;4998130;28;2104;-68
2023/11/05 05:31:52;;;;;;;;;;;21.00;69.20;;;;;;5005305;28;1350;-68
2023/11/05 05:34:18;;;;;;;;;;;21.00;69.20;;;;;;5003730;28;1378;-67
2023/11/05 05:36:43;;;;;;;;;;;21.00;69.20;;;;;;5002685;28;1225;-67
2023/11/05 05:39:09;;;;;;;;;;;21.00;69.20;;;;;;5003066;28;1453;-67
2023/11/05 05:41:34;;;;;;;;;;;21.00;69.30;;;;;;5003219;28;1962;-67
2023/11/05 05:44:00;;;;;;;;;;;21.00;69.20;;;;;;5002340;28;1684;-67
2023/11/05 05:46:25;;;;;;;;;;;20.90;69.20;;;;;;5003180;28;1282;-67
2023/11/05 05:48:51;;;;;;;;;;;21.00;69.30;;;;;;5001548;28;1458;-68
2023/11/05 05:51:17;;;;;;;;;;;21.00;69.30;;;;;;5004639;28;1545;-69
2023/11/05 05:53:42;;;;;;;;;;;21.00;69.30;;;;;;5001951;28;1144;-68
2023/11/05 05:56:09;;;;;;;;;;;21.00;69.30;;;;;;5003620;28;1350;-69
2023/11/05 05:58:34;;;;;;;;;;;20.90;69.20;;;;;;5002406;28;1365;-68
2023/11/05 06:01:00;;;;;;;;;;;21.00;69.30;;;;;;5004649;28;1360;-69
2023/11/05 06:03:25;;;;;;;;;;;20.90;69.20;;;;;;5000483;28;1974;-69
2023/11/05 06:05:51;;;;;;;;;;;21.00;69.30;;;;;;5002879;28;1256;-70
2023/11/05 06:08:17;;;;;;;;;;;20.90;69.20;;;;;;5001963;28;1418;-68
2023/11/05 06:10:42;;;;;;;;;;;20.90;69.20;;;;;;5002755;28;1292;-68
2023/11/05 06:13:08;;;;;;;;;;;20.90;69.20;;;;;;5017787;28;1509;-66
2023/11/05 06:15:33;;;;;;;;;;;20.90;69.20;;;;;;5005671;28;1374;-67
2023/11/05 06:17:59;;;;;;;;;;;20.90;69.20;;;;;;5002548;28;1573;-66
2023/11/05 06:20:24;;;;;;;;;;;20.90;69.30;;;;;;5004648;28;1371;-69
2023/11/05 06:22:53;;;;;;;;;;;20.90;69.30;;;;;;5000965;28;1962;-70
2023/11/05 06:25:19;;;;;;;;;;;20.90;69.30;;;;;;5002517;28;1487;-71
2023/11/05 06:27:44;;;;;;;;;;;20.90;69.30;;;;;;5007200;28;1393;-70
2023/11/05 06:30:10;;;;;;;;;;;20.90;70.10;;;;;;5004697;28;1277;-70
2023/11/05 06:32:36;;;;;;;;;;;20.90;69.30;;;;;;5007016;28;1676;-68
2023/11/05 06:35:01;;;;;;;;;;;20.90;69.30;;;;;;5002354;28;1385;-70
2023/11/05 06:37:27;;;;;;;;;;;20.90;69.30;;;;;;5000864;28;1383;-69
2023/11/05 06:39:53;;;;;;;;;;;20.90;69.40;;;;;;5005817;28;1339;-69
2023/11/05 06:42:18;;;;;;;;;;;20.90;69.40;;;;;;5005142;28;1980;-69
2023/11/05 06:44:45;;;;;;;;;;;20.90;69.40;;;;;;5001354;28;1146;-69
2023/11/05 06:47:11;;;;;;;;;;;20.90;69.40;;;;;;5000827;28;1210;-69
2023/11/05 06:49:36;;;;;;;;;;;20.90;69.40;;;;;;5000543;28;1447;-69
2023/11/05 06:52:01;;;;;;;;;;;20.90;69.40;;;;;;5003317;28;1283;-68
2023/11/05 06:54:27;;;;;;;;;;;20.90;69.40;;;;;;5003342;28;1251;-68
2023/11/05 06:56:53;;;;;;;;;;;20.90;69.40;;;;;;5004399;28;1378;-68
2023/11/05 06:59:18;;;;;;;;;;;20.80;69.40;;;;;;5001784;28;1351;-68
2023/11/05 07:01:44;;;;;;;;;;;20.90;69.40;;;;;;5001257;28;1914;-68
2023/11/05 07:04:10;;;;;;;;;;;20.80;69.40;;;;;;5001028;28;1274;-66
2023/11/05 07:06:35;;;;;;;;;;;20.80;69.40;;;;;;4998267;28;1306;-68
2023/11/05 07:09:01;;;;;;;;;;;20.80;69.30;;;;;;4997567;28;1737;-68
2023/11/05 07:11:26;;;;;;;;;;;20.80;65.70;;;;;;5003704;28;1481;-68
2023/11/05 07:13:52;;;;;;;;;;;20.80;61.80;;;;;;5002954;28;1495;-67
2023/11/05 07:16:17;;;;;;;;;;;20.80;60.20;;;;;;5000940;28;1521;-68
2023/11/05 07:18:43;;;;;;;;;;;20.80;58.60;;;;;;5002273;28;1445;-68
2023/11/05 07:21:11;;;;;;;;;;;20.80;57.70;;;;;;5003777;28;1799;-69
2023/11/05 07:23:37;;;;;;;;;;;20.80;56.80;;;;;;5002114;28;1895;-69
2023/11/05 07:26:02;;;;;;;;;;;20.80;56.40;;;;;;5004482;28;1418;-68
2023/11/05 07:28:28;;;;;;;;;;;20.80;56.50;;;;;;5001536;28;1548;-68
2023/11/05 07:30:54;;;;;;;;;;;20.80;57.00;;;;;;5009465;28;1408;-68
2023/11/05 07:33:19;;;;;;;;;;;20.80;58.20;;;;;;5001079;28;1618;-68
2023/11/05 07:35:45;;;;;;;;;;;20.80;58.60;;;;;;5011689;28;1636;-67
2023/11/05 07:38:10;;;;;;;;;;;20.80;58.70;;;;;;5001882;28;1401;-67
2023/11/05 07:40:36;;;;;;;;;;;20.80;58.90;;;;;;5001878;28;1382;-67
2023/11/05 07:43:01;;;;;;;;;;;20.80;59.00;;;;;;5003188;28;1898;-68
2023/11/05 07:45:27;;;;;;;;;;;20.80;59.20;;;;;;5002204;28;1243;-68
2023/11/05 07:47:52;;;;;;;;;;;20.80;59.50;;;;;;4998268;28;1063;-67
2023/11/05 07:50:17;;;;;;;;;;;20.80;59.70;;;;;;5001556;28;1349;-68
2023/11/05 07:52:43;;;;;;;;;;;20.90;60.20;;;;;;5001836;28;1000;-68
2023/11/05 07:55:11;;;;;;;;;;;20.90;60.50;;;;;;5016252;28;1092;-67
2023/11/05 07:57:38;;;;;;;;;;;20.90;60.90;;;;;;5001681;28;927;-69
2023/11/05 08:00:04;;;;;;;;;;;20.90;61.20;;;;;;5001587;28;1058;-69
2023/11/05 08:02:29;;;;;;;;;;;20.90;61.30;;;;;;5001816;28;2229;-69
2023/11/05 08:04:56;;;;;;;;;;;20.90;61.60;;;;;;5000169;28;2079;-69
2023/11/05 08:07:22;;;;;;;;;;;20.90;61.70;;;;;;5002312;28;997;-69
2023/11/05 08:09:48;;;;;;;;;;;20.90;62.00;;;;;;5005393;28;1447;-68
2023/11/05 08:12:14;;;;;;;;;;;20.90;62.20;;;;;;5002034;28;1363;-69
2023/11/05 08:14:40;;;;;;;;;;;20.90;62.40;;;;;;4999667;28;1132;-69
2023/11/05 08:17:06;;;;;;;;;;;20.90;62.50;;;;;;5004083;28;991;-68
2023/11/05 08:19:32;;;;;;;;;;;20.90;62.70;;;;;;5001807;28;1158;-69
2023/11/05 08:21:57;;;;;;;;;;;20.90;62.80;;;;;;5001506;28;1985;-69
2023/11/05 08:24:24;;;;;;;;;;;20.90;62.90;;;;;;5002791;28;1388;-69
2023/11/05 08:26:49;;;;;;;;;;;20.90;63.00;;;;;;5001027;28;1273;-68
2023/11/05 08:29:15;;;;;;;;;;;21.00;63.10;;;;;;5004502;28;1315;-69
2023/11/05 08:31:42;;;;;;;;;;;20.90;63.20;;;;;;5000462;28;1368;-69
2023/11/05 08:34:07;;;;;;;;;;;21.00;63.30;;;;;;4998940;28;1147;-69
2023/11/05 08:36:33;;;;;;;;;;;21.00;63.40;;;;;;5019125;28;1542;-69
2023/11/05 08:38:59;;;;;;;;;;;20.90;63.50;;;;;;5000516;28;1253;-69
2023/11/05 08:41:24;;;;;;;;;;;20.90;63.60;;;;;;5004477;28;1444;-69
2023/11/05 08:43:50;;;;;;;;;;;21.00;63.70;;;;;;5000679;28;1993;-69
2023/11/05 08:46:15;;;;;;;;;;;20.90;63.80;;;;;;4997951;28;1680;-68
2023/11/05 08:48:41;;;;;;;;;;;21.00;63.80;;;;;;5000320;28;1343;-69
2023/11/05 08:51:06;;;;;;;;;;;21.00;63.90;;;;;;4997960;28;1339;-69
2023/11/05 08:53:31;;;;;;;;;;;20.90;63.90;;;;;;4998229;28;1538;-69
2023/11/05 08:55:57;;;;;;;;;;;21.00;64.10;;;;;;5001193;28;1316;-69
2023/11/05 08:58:22;;;;;;;;;;;21.00;64.10;;;;;;4997669;28;1421;-69
2023/11/05 09:00:48;;;;;;;;;;;21.00;64.20;;;;;;4999295;28;1228;-69
2023/11/05 09:03:13;;;;;;;;;;;21.00;64.20;;;;;;5000209;28;1966;-69
2023/11/05 09:05:40;;;;;;;;;;;21.10;64.30;;;;;;4999682;28;1456;-69
2023/11/05 09:08:08;;;;;;;;;;;21.10;64.20;;;;;;5001178;28;1460;-68
2023/11/05 09:10:34;;;;;;;;;;;21.20;64.10;;;;;;5001457;28;1356;-69
2023/11/05 09:12:59;;;;;;;;;;;21.30;64.10;;;;;;5005514;28;1603;-69
2023/11/05 09:15:28;;;;;;;;;;;21.30;64.00;;;;;;5002071;28;1513;-69
2023/11/05 09:17:53;;;;;;;;;;;21.40;63.90;;;;;;5002376;28;1326;-70
2023/11/05 09:20:19;;;;;;;;;;;21.50;63.80;;;;;;5001277;28;1324;-69
2023/11/05 09:22:46;;;;;;;;;;;21.50;63.60;;;;;;5000243;28;1964;-69
2023/11/05 09:25:11;;;;;;;;;;;21.60;63.50;;;;;;5000618;28;1412;-69
2023/11/05 09:27:37;;;;;;;;;;;21.60;63.40;;;;;;4998876;28;1452;-70
2023/11/05 09:30:04;;;;;;;;;;;21.70;63.20;;;;;;5004496;28;1658;-69
2023/11/05 09:32:29;;;;;;;;;;;21.70;63.10;;;;;;5002364;28;1386;-69
2023/11/05 09:34:54;;;;;;;;;;;21.70;62.90;;;;;;5000675;28;1398;-70
2023/11/05 09:37:20;;;;;;;;;;;21.80;62.90;;;;;;4999670;28;1329;-70
2023/11/05 09:39:48;;;;;;;;;;;21.80;62.80;;;;;;5004416;28;1141;-70
2023/11/05 09:42:15;;;;;;;;;;;21.90;62.70;;;;;;5000814;28;1902;-69
2023/11/05 09:44:41;;;;;;;;;;;21.90;62.70;;;;;;5008354;28;1232;-70
2023/11/05 09:47:09;;;;;;;;;;;21.90;62.60;;;;;;5010140;28;1468;-67
2023/11/05 09:49:37;;;;;;;;;;;21.90;62.50;;;;;;5004142;28;1180;-69
2023/11/05 09:52:09;;;;;;;;;;;21.90;62.50;;;;;;5002135;28;1475;-70
2023/11/05 09:54:40;;;;;;;;;;;21.90;62.50;;;;;;5001410;28;1434;-68
2023/11/05 09:57:06;;;;;;;;;;;21.90;62.40;;;;;;5008874;28;1290;-68
2023/11/05 09:59:31;;;;;;;;;;;22.00;62.50;;;;;;5012276;28;1224;-68
2023/11/05 10:01:57;;;;;;;;;;;22.00;62.50;;;;;;5008564;28;1898;-68
2023/11/05 10:04:23;;;;;;;;;;;21.90;62.40;;;;;;5008380;28;1252;-69
2023/11/05 10:06:49;;;;;;;;;;;22.00;62.50;;;;;;5002595;28;1632;-68
2023/11/05 10:09:14;;;;;;;;;;;22.00;62.50;;;;;;5007958;28;1387;-68
2023/11/05 10:11:43;;;;;;;;;;;22.00;62.50;;;;;;5003468;28;1279;-68
2023/11/05 10:14:11;;;;;;;;;;;22.00;62.50;;;;;;5021099;28;1868;-69
2023/11/05 10:16:37;;;;;;;;;;;22.00;62.50;;;;;;5001324;28;1575;-68
2023/11/05 10:19:02;;;;;;;;;;;22.00;62.60;;;;;;5011260;28;1317;-67
2023/11/05 10:21:35;;;;;;;;;;;22.00;62.60;;;;;;5004777;28;1357;-68
2023/11/05 10:24:00;;;;;;;;;;;21.90;62.60;;;;;;5008918;28;1355;-67
2023/11/05 10:26:28;;;;;;;;;;;21.90;62.70;;;;;;5005559;28;1200;-68
2023/11/05 10:28:53;;;;;;;;;;;21.90;62.70;;;;;;5005228;28;1417;-68
2023/11/05 10:31:20;;;;;;;;;;;21.90;62.80;;;;;;5002014;28;1352;-69
2023/11/05 10:33:45;;;;;;;;;;;21.90;62.80;;;;;;5002137;28;1102;-68
2023/11/05 10:36:11;;;;;;;;;;;21.90;62.80;;;;;;5006171;28;1219;-69
2023/11/05 10:38:36;;;;;;;;;;;21.90;62.90;;;;;;5005518;28;1712;-68
2023/11/05 10:41:02;;;;;;;;;;;21.90;62.90;;;;;;5004042;28;1574;-68
2023/11/05 10:43:27;;;;;;;;;;;21.90;62.90;;;;;;5001351;28;2015;-68
2023/11/05 10:45:53;;;;;;;;;;;21.90;63.00;;;;;;5002349;28;1461;-68
2023/11/05 10:48:19;;;;;;;;;;;21.90;63.10;;;;;;5001180;28;1508;-69
2023/11/05 10:50:45;;;;;;;;;;;21.90;63.10;;;;;;4999243;28;1320;-67
2023/11/05 10:53:10;;;;;;;;;;;21.90;63.10;;;;;;5004009;28;1309;-69
2023/11/05 10:55:37;;;;;;;;;;;21.90;63.10;;;;;;5003769;28;1201;-69
2023/11/05 10:58:03;;;;;;;;;;;21.80;63.10;;;;;;5021569;28;1154;-69
2023/11/05 11:00:29;;;;;;;;;;;21.80;63.20;;;;;;5003162;28;1431;-70
2023/11/05 11:02:56;;;;;;;;;;;21.80;63.20;;;;;;5008034;28;1902;-70
2023/11/05 11:05:41;;;;;;;;;;;21.80;63.30;;;;;;5028196;28;951;-69
2023/11/05 11:08:10;;;;;;;;;;;21.80;63.30;;;;;;5005617;28;1246;-69
2023/11/05 11:10:39;;;;;;;;;;;21.80;63.40;;;;;;5008267;28;1190;-69
2023/11/05 11:13:11;;;;;;;;;;;21.80;63.50;;;;;;5004813;28;1413;-71
2023/11/05 11:15:37;;;;;;;;;;;21.70;63.50;;;;;;4999319;28;1401;-70
2023/11/05 11:18:02;;;;;;;;;;;21.80;63.60;;;;;;5006225;28;1319;-70
2023/11/05 11:20:29;;;;;;;;;;;21.80;63.60;;;;;;5003451;28;1344;-68
2023/11/05 11:22:56;;;;;;;;;;;21.70;63.70;;;;;;5006361;28;1964;-68
2023/11/05 11:25:22;;;;;;;;;;;21.70;63.70;;;;;;5005521;28;1465;-68
2023/11/05 11:27:48;;;;;;;;;;;21.70;63.80;;;;;;5003606;28;1615;-68
2023/11/05 11:30:14;;;;;;;;;;;21.70;63.80;;;;;;4998460;28;1282;-68
2023/11/05 11:32:39;;;;;;;;;;;21.70;63.90;;;;;;5002039;28;1350;-68
2023/11/05 11:35:05;;;;;;;;;;;21.60;64.60;;;;;;5001245;28;1576;-68
2023/11/05 11:37:33;;;;;;;;;;;21.70;64.00;;;;;;5001227;28;1252;-68
2023/11/05 11:39:59;;;;;;;;;;;21.60;64.00;;;;;;5005917;28;1260;-68
2023/11/05 11:42:24;;;;;;;;;;;21.60;64.00;;;;;;5006423;28;1906;-68
2023/11/05 11:44:50;;;;;;;;;;;21.60;64.10;;;;;;5001100;28;1605;-68
2023/11/05 11:47:15;;;;;;;;;;;21.60;64.10;;;;;;5000980;28;1273;-68
2023/11/05 11:49:44;;;;;;;;;;;21.60;64.20;;;;;;5001413;28;1511;-68
2023/11/05 11:52:09;;;;;;;;;;;21.60;64.20;;;;;;5016185;28;1404;-69
2023/11/05 11:54:35;;;;;;;;;;;21.60;64.30;;;;;;5000310;28;1422;-69
2023/11/05 11:57:00;;;;;;;;;;;21.50;64.20;;;;;;5001124;28;1918;-69
2023/11/05 11:59:26;;;;;;;;;;;21.60;64.40;;;;;;5005009;28;2108;-67
2023/11/05 12:01:51;;;;;;;;;;;21.50;64.30;;;;;;5003475;28;1902;-67
2023/11/05 12:04:17;;;;;;;;;;;21.50;64.40;;;;;;5001328;28;1261;-66
2023/11/05 12:06:45;;;;;;;;;;;21.50;64.50;;;;;;4999005;28;1363;-67
2023/11/05 12:09:20;;;;;;;;;;;21.50;64.50;;;;;;5000371;28;1349;-67
2023/11/05 12:11:46;;;;;;;;;;;21.50;64.50;;;;;;5003605;28;1285;-66
2023/11/05 12:14:13;;;;;;;;;;;21.50;64.60;;;;;;5004717;28;1616;-67
2023/11/05 12:16:38;;;;;;;;;;;21.50;64.60;;;;;;5001689;28;1019;-67
2023/11/05 12:19:05;;;;;;;;;;;21.50;64.60;;;;;;5016353;28;1296;-67
2023/11/05 12:21:31;;;;;;;;;;;21.50;64.60;;;;;;5001834;28;1235;-67
2023/11/05 12:23:56;;;;;;;;;;;21.50;64.70;;;;;;5006318;28;2157;-67
2023/11/05 12:26:22;;;;;;;;;;;21.50;64.60;;;;;;5000598;28;1134;-66
2023/11/05 12:28:47;;;;;;;;;;;21.50;64.60;;;;;;4998820;28;1350;-67
2023/11/05 12:31:15;;;;;;;;;;;21.50;64.60;;;;;;5003281;28;1473;-67
2023/11/05 12:33:40;;;;;;;;;;;21.60;64.70;;;;;;5002329;28;1875;-67
2023/11/05 12:36:12;;;;;;;;;;;21.60;64.60;;;;;;5004552;28;1341;-66
2023/11/05 12:38:37;;;;;;;;;;;21.60;64.50;;;;;;4999876;28;1473;-67
2023/11/05 12:41:03;;;;;;;;;;;21.60;64.50;;;;;;5000126;28;1380;-67
2023/11/05 12:43:28;;;;;;;;;;;21.60;64.30;;;;;;5001973;28;1963;-64
2023/11/05 12:45:58;;;;;;;;;;;21.60;64.30;;;;;;5001756;28;1474;-67
2023/11/05 12:48:24;;;;;;;;;;;21.70;64.30;;;;;;5003621;28;1369;-67
2023/11/05 12:50:50;;;;;;;;;;;21.70;64.30;;;;;;5001770;28;1367;-67
2023/11/05 12:53:17;;;;;;;;;;;21.70;64.20;;;;;;4997299;28;1405;-67
2023/11/05 12:55:42;;;;;;;;;;;21.70;64.20;;;;;;5000096;28;1319;-67
2023/11/05 12:58:08;;;;;;;;;;;21.70;64.20;;;;;;5001689;28;1462;-67
2023/11/05 13:00:33;;;;;;;;;;;21.70;64.20;;;;;;5002753;28;1420;-67
2023/11/05 13:02:59;;;;;;;;;;;21.70;64.20;;;;;;5000206;28;1966;-67
2023/11/05 13:05:24;;;;;;;;;;;21.70;64.20;;;;;;5001223;28;1376;-65
2023/11/05 13:07:50;;;;;;;;;;;21.70;64.40;;;;;;4999932;28;1368;-65
2023/11/05 13:10:16;;;;;;;;;;;21.70;64.30;;;;;;4994779;28;1421;-66
2023/11/05 13:12:44;;;;;;;;;;;21.70;64.30;;;;;;5003030;28;1706;-67
2023/11/05 13:15:12;;;;;;;;;;;21.70;64.30;;;;;;5004955;28;1371;-66
2023/11/05 13:17:38;;;;;;;;;;;21.70;64.30;;;;;;5005892;28;1517;-68
2023/11/05 13:20:08;;;;;;;;;;;21.70;64.40;;;;;;5019118;28;1547;-67
2023/11/05 13:22:34;;;;;;;;;;;21.60;64.40;;;;;;5006470;28;1898;-66
2023/11/05 13:24:59;;;;;;;;;;;21.60;64.40;;;;;;5004842;28;1538;-66
2023/11/05 13:27:26;;;;;;;;;;;21.60;64.40;;;;;;5003520;28;1446;-66
2023/11/05 13:29:51;;;;;;;;;;;21.60;64.50;;;;;;5003296;28;1335;-67
2023/11/05 13:32:17;;;;;;;;;;;21.60;64.50;;;;;;5005303;28;1440;-67
2023/11/05 13:34:42;;;;;;;;;;;21.60;64.60;;;;;;5006041;28;1409;-66
2023/11/05 13:37:08;;;;;;;;;;;21.60;64.60;;;;;;5003963;28;1355;-67
2023/11/05 13:39:33;;;;;;;;;;;21.60;64.70;;;;;;5003379;28;1417;-67
2023/11/05 13:41:59;;;;;;;;;;;21.50;64.60;;;;;;5004666;28;1956;-67
2023/11/05 13:44:24;;;;;;;;;;;21.60;64.70;;;;;;5002645;28;1377;-67
2023/11/05 13:46:50;;;;;;;;;;;21.50;64.70;;;;;;5001863;28;1340;-66
2023/11/05 13:49:16;;;;;;;;;;;21.50;64.70;;;;;;5001919;28;1018;-67
2023/11/05 13:51:41;;;;;;;;;;;21.50;64.70;;;;;;5004102;28;1561;-67
2023/11/05 13:54:07;;;;;;;;;;;21.50;64.70;;;;;;5007524;28;864;-67
2023/11/05 13:56:32;;;;;;;;;;;21.50;64.70;;;;;;5003943;28;1074;-67
2023/11/05 13:58:58;;;;;;;;;;;21.50;64.70;;;;;;5005833;28;1093;-68
2023/11/05 14:01:24;;;;;;;;;;;21.50;64.80;;;;;;5004475;28;1214;-67
2023/11/05 14:03:49;;;;;;;;;;;21.50;64.70;;;;;;5004204;28;1902;-67
2023/11/05 14:06:15;;;;;;;;;;;21.50;64.80;;;;;;5003417;28;1313;-67
2023/11/05 14:08:40;;;;;;;;;;;21.50;64.80;;;;;;5005195;28;1164;-67
2023/11/05 14:11:07;;;;;;;;;;;21.50;64.80;;;;;;5006361;28;1445;-67
2023/11/05 14:13:35;;;;;;;;;;;21.50;64.90;;;;;;5001786;28;1559;-67
2023/11/05 14:16:01;;;;;;;;;;;21.50;65.30;;;;;;5003025;28;1361;-67
2023/11/05 14:18:26;;;;;;;;;;;21.50;65.60;;;;;;5005561;28;1509;-67
2023/11/05 14:20:52;;;;;;;;;;;21.60;65.70;;;;;;5005092;28;1374;-67
2023/11/05 14:23:18;;;;;;;;;;;21.60;65.90;;;;;;5001365;28;1906;-67